createdAt,value
2018-02-17T00:00:05.868Z,6.13
2018-02-17T00:01:15.944Z,6.05
2018-02-17T00:02:26.002Z,6.13
2018-02-17T00:03:36.063Z,6.07
2018-02-17T00:04:46.119Z,6.15
2018-02-17T00:05:55.668Z,6.15
2018-02-17T00:07:05.739Z,6.18
2018-02-17T00:08:15.532Z,6.15
2018-02-17T00:09:25.086Z,6.09
2018-02-17T00:10:35.172Z,6.02
2018-02-17T00:11:45.026Z,6.03
2018-02-17T00:12:55.084Z,5.95
2018-02-17T00:14:05.160Z,5.95
2018-02-17T00:15:15.234Z,5.82
2018-02-17T00:16:25.306Z,5.82
2018-02-17T00:17:35.079Z,5.82
2018-02-17T00:18:45.630Z,5.82
2018-02-17T00:19:55.679Z,5.88
2018-02-17T00:21:05.472Z,5.82
2018-02-17T00:22:15.844Z,5.82
2018-02-17T00:23:25.627Z,5.78
2018-02-17T00:24:35.695Z,5.84
2018-02-17T00:25:45.760Z,5.81
2018-02-17T00:26:55.838Z,5.77
2018-02-17T00:28:05.918Z,5.77
2018-02-17T00:29:15.510Z,5.73
2018-02-17T00:30:25.317Z,5.67
2018-02-17T00:31:35.373Z,5.63
2018-02-17T00:32:45.444Z,5.69
2018-02-17T00:33:55.506Z,5.64
2018-02-17T00:35:05.314Z,5.72
2018-02-17T00:36:15.398Z,5.75
2018-02-17T00:37:25.476Z,5.7
2018-02-17T00:38:35.539Z,5.73
2018-02-17T00:39:45.089Z,5.73
2018-02-17T00:40:55.157Z,5.64
2018-02-17T00:42:05.220Z,5.66
2018-02-17T00:43:15.266Z,5.7
2018-02-17T00:44:25.335Z,5.72
2018-02-17T00:45:34.621Z,5.6
2018-02-17T00:46:44.824Z,5.63
2018-02-17T00:47:54.896Z,5.66
2018-02-17T00:49:04.948Z,5.69
2018-02-17T00:50:15.004Z,5.7
2018-02-17T00:51:25.081Z,5.78
2018-02-17T00:52:34.689Z,5.77
2018-02-17T00:53:44.743Z,5.81
2018-02-17T00:54:54.789Z,5.78
2018-02-17T00:56:04.871Z,5.77
2018-02-17T00:57:14.661Z,5.81
2018-02-17T00:58:24.772Z,5.75
2018-02-17T00:59:34.564Z,5.75
2018-02-17T01:00:44.643Z,5.8
2018-02-17T01:01:54.446Z,5.78
2018-02-17T01:03:04.566Z,5.75
2018-02-17T01:04:14.403Z,5.82
2018-02-17T01:05:23.935Z,5.88
2018-02-17T01:06:34.009Z,5.89
2018-02-17T01:07:43.816Z,5.92
2018-02-17T01:08:53.874Z,5.95
2018-02-17T01:10:03.945Z,5.92
2018-02-17T01:11:13.484Z,5.91
2018-02-17T01:12:23.562Z,5.8
2018-02-17T01:13:33.624Z,5.82
2018-02-17T01:14:43.410Z,5.78
2018-02-17T01:15:52.688Z,5.92
2018-02-17T01:17:02.217Z,5.84
2018-02-17T01:18:12.018Z,5.91
2018-02-17T01:19:21.548Z,5.89
2018-02-17T01:20:31.622Z,5.82
2018-02-17T01:21:41.669Z,5.78
2018-02-17T01:22:51.447Z,5.78
2018-02-17T01:24:00.969Z,5.81
2018-02-17T01:25:11.037Z,5.72
2018-02-17T01:26:20.568Z,5.75
2018-02-17T01:27:30.723Z,5.66
2018-02-17T01:28:40.785Z,5.57
2018-02-17T01:29:51.380Z,5.59
2018-02-17T01:31:00.912Z,5.63
2018-02-17T01:32:10.971Z,5.55
2018-02-17T01:33:20.776Z,5.46
2018-02-17T01:34:30.844Z,5.49
2018-02-17T01:35:40.374Z,5.46
2018-02-17T01:36:50.173Z,5.48
2018-02-17T01:37:59.965Z,5.49
2018-02-17T01:39:10.024Z,5.42
2018-02-17T01:40:20.094Z,5.42
2018-02-17T01:41:30.156Z,5.42
2018-02-17T01:42:40.212Z,5.48
2018-02-17T01:43:50.274Z,5.54
2018-02-17T01:45:00.361Z,5.54
2018-02-17T01:46:10.149Z,5.54
2018-02-17T01:47:20.197Z,5.46
2018-02-17T01:48:30.272Z,5.37
2018-02-17T01:49:40.330Z,5.45
2018-02-17T01:50:50.392Z,5.36
2018-02-17T01:52:01.274Z,5.45
2018-02-17T01:53:10.817Z,5.46
2018-02-17T01:54:20.609Z,5.44
2018-02-17T01:55:30.405Z,5.44
2018-02-17T01:56:40.457Z,5.54
2018-02-17T01:57:49.996Z,5.52
2018-02-17T01:58:59.793Z,5.51
2018-02-17T02:00:09.578Z,5.45
2018-02-17T02:01:19.366Z,5.46
2018-02-17T02:02:29.416Z,5.57
2018-02-17T02:03:39.214Z,5.54
2018-02-17T02:04:49.257Z,5.59
2018-02-17T02:05:58.792Z,5.57
2018-02-17T02:07:08.857Z,5.54
2018-02-17T02:08:18.661Z,5.55
2018-02-17T02:09:28.718Z,5.6
2018-02-17T02:10:38.247Z,5.69
2018-02-17T02:11:48.045Z,5.6
2018-02-17T02:12:58.100Z,5.59
2018-02-17T02:14:07.953Z,5.55
2018-02-17T02:15:17.750Z,5.46
2018-02-17T02:16:27.541Z,5.52
2018-02-17T02:17:37.077Z,5.51
2018-02-17T02:18:46.854Z,5.49
2018-02-17T02:19:56.638Z,5.48
2018-02-17T02:21:06.454Z,5.45
2018-02-17T02:22:16.525Z,5.39
2018-02-17T02:23:26.575Z,5.48
2018-02-17T02:24:36.370Z,5.45
2018-02-17T02:25:46.181Z,5.37
2018-02-17T02:26:56.232Z,5.36
2018-02-17T02:28:06.033Z,5.45
2018-02-17T02:29:16.094Z,5.42
2018-02-17T02:30:25.885Z,5.41
2018-02-17T02:31:35.690Z,5.42
2018-02-17T02:32:45.502Z,5.37
2018-02-17T02:33:55.043Z,5.36
2018-02-17T02:35:04.846Z,5.31
2018-02-17T02:36:14.658Z,5.36
2018-02-17T02:37:24.477Z,5.33
2018-02-17T02:38:34.558Z,5.41
2018-02-17T02:39:44.623Z,5.42
2018-02-17T02:40:54.714Z,5.34
2018-02-17T02:42:04.767Z,5.37
2018-02-17T02:43:14.844Z,5.26
2018-02-17T02:44:24.920Z,5.39
2018-02-17T02:45:34.981Z,5.41
2018-02-17T02:46:44.761Z,5.24
2018-02-17T02:47:54.570Z,5.36
2018-02-17T02:49:04.677Z,5.34
2018-02-17T02:50:14.474Z,5.39
2018-02-17T02:51:24.552Z,5.31
2018-02-17T02:52:34.609Z,5.37
2018-02-17T02:53:44.671Z,5.31
2018-02-17T02:54:54.739Z,5.31
2018-02-17T02:56:04.281Z,5.26
2018-02-17T02:57:14.076Z,5.37
2018-02-17T02:58:24.142Z,5.28
2018-02-17T02:59:34.244Z,5.26
2018-02-17T03:00:45.353Z,5.26
2018-02-17T03:01:55.414Z,5.24
2018-02-17T03:03:04.953Z,5.3
2018-02-17T03:04:14.994Z,5.37
2018-02-17T03:05:24.797Z,5.33
2018-02-17T03:36:44.407Z,2.58
2018-02-17T03:37:54.458Z,2.52
2018-02-17T03:39:04.501Z,2.52
2018-02-17T03:40:14.546Z,2.58
2018-02-17T03:41:24.590Z,2.66
2018-02-17T03:42:34.677Z,2.66
2018-02-17T03:43:44.470Z,2.76
2018-02-17T03:44:54.759Z,3.05
2018-02-17T03:46:04.545Z,3.06
2018-02-17T03:47:14.593Z,3.26
2018-02-17T03:48:24.677Z,3.35
2018-02-17T03:49:34.464Z,3.53
2018-02-17T03:50:44.512Z,3.63
2018-02-17T03:51:54.043Z,3.79
2018-02-17T03:53:04.099Z,3.92
2018-02-17T03:54:13.620Z,4.12
2018-02-17T03:55:23.678Z,4.2
2018-02-17T03:56:33.204Z,4.14
2018-02-17T03:57:42.997Z,4.26
2018-02-17T03:58:52.791Z,4.39
2018-02-17T04:00:02.838Z,4.5
2018-02-17T04:01:12.891Z,4.46
2018-02-17T04:02:22.941Z,4.57
2018-02-17T04:03:32.977Z,4.58
2018-02-17T04:04:43.026Z,4.68
2018-02-17T04:05:52.617Z,4.76
2018-02-17T04:07:02.419Z,4.75
2018-02-17T04:08:12.202Z,4.78
2018-02-17T04:09:22.252Z,4.83
2018-02-17T04:10:32.299Z,4.85
2018-02-17T04:11:42.095Z,4.85
2018-02-17T04:12:52.175Z,4.85
2018-02-17T04:14:01.972Z,4.78
2018-02-17T04:15:11.766Z,4.83
2018-02-17T04:16:21.825Z,4.76
2018-02-17T04:17:31.864Z,4.76
2018-02-17T04:18:41.125Z,4.9
2018-02-17T04:19:50.907Z,4.87
2018-02-17T04:21:00.694Z,4.79
2018-02-17T04:22:10.770Z,4.69
2018-02-17T04:23:20.551Z,4.69
2018-02-17T04:24:30.091Z,4.72
2018-02-17T04:25:39.891Z,4.65
2018-02-17T04:26:50.106Z,4.72
2018-02-17T04:28:00.144Z,4.71
2018-02-17T04:29:10.206Z,4.64
2018-02-17T04:30:20.006Z,4.68
2018-02-17T04:31:30.056Z,4.71
2018-02-17T04:32:39.586Z,4.57
2018-02-17T04:33:48.853Z,4.6
2018-02-17T04:34:58.966Z,4.51
2018-02-17T04:36:09.019Z,4.51
2018-02-17T04:37:19.076Z,4.65
2018-02-17T04:38:29.118Z,4.5
2018-02-17T04:39:39.858Z,4.51
2018-02-17T04:40:49.905Z,4.47
2018-02-17T04:41:59.690Z,4.46
2018-02-17T04:43:09.477Z,4.4
2018-02-17T04:44:19.014Z,4.33
2018-02-17T04:45:28.801Z,4.42
2018-02-17T04:46:38.600Z,4.33
2018-02-17T04:47:48.663Z,4.32
2018-02-17T04:48:58.468Z,4.28
2018-02-17T04:50:08.542Z,4.24
2018-02-17T04:51:18.607Z,4.2
2018-02-17T04:52:28.728Z,4.18
2018-02-17T04:53:38.505Z,4.22
2018-02-17T04:54:48.289Z,4.32
2018-02-17T04:55:57.823Z,4.29
2018-02-17T04:57:07.874Z,4.15
2018-02-17T04:58:17.446Z,4.29
2018-02-17T04:59:27.236Z,4.15
2018-02-17T05:00:37.287Z,4.2
2018-02-17T05:01:47.108Z,4.29
2018-02-17T05:02:56.898Z,4.2
2018-02-17T05:04:06.741Z,4.22
2018-02-17T05:05:16.805Z,4.22
2018-02-17T05:06:26.876Z,4.29
2018-02-17T05:07:36.930Z,4.2
2018-02-17T05:08:46.984Z,4.2
2018-02-17T05:09:57.050Z,4.29
2018-02-17T05:11:06.577Z,4.38
2018-02-17T05:12:16.617Z,4.28
2018-02-17T05:13:26.656Z,4.15
2018-02-17T05:14:36.455Z,4.26
2018-02-17T05:15:45.984Z,4.22
2018-02-17T05:16:56.035Z,4.3
2018-02-17T05:18:05.572Z,4.3
2018-02-17T05:19:15.092Z,4.29
2018-02-17T05:20:24.614Z,4.28
2018-02-17T05:21:34.464Z,4.2
2018-02-17T05:22:44.282Z,4.26
2018-02-17T05:23:54.343Z,4.3
2018-02-17T05:25:04.137Z,4.28
2018-02-17T05:26:14.199Z,4.15
2018-02-17T05:27:24.005Z,4.14
2018-02-17T05:28:34.045Z,4.14
2018-02-17T05:29:44.116Z,4.21
2018-02-17T05:30:54.168Z,4.24
2018-02-17T05:32:04.215Z,4.12
2018-02-17T05:33:14.270Z,4.07
2018-02-17T05:34:24.072Z,4.1
2018-02-17T05:35:34.124Z,4.08
2018-02-17T05:36:44.176Z,4.02
2018-02-17T05:37:54.261Z,4.08
2018-02-17T05:39:04.317Z,3.97
2018-02-17T05:40:14.111Z,3.99
2018-02-17T05:41:24.165Z,4.03
2018-02-17T05:42:34.226Z,3.93
2018-02-17T05:43:44.279Z,3.96
2018-02-17T05:44:53.796Z,3.94
2018-02-17T05:46:03.588Z,3.94
2018-02-17T05:47:13.622Z,4.02
2018-02-17T05:48:23.401Z,3.97
2018-02-17T05:49:33.469Z,4.04
2018-02-17T05:50:43.260Z,4.04
2018-02-17T05:51:53.035Z,4.04
2018-02-17T05:53:03.096Z,4.07
2018-02-17T05:54:12.893Z,3.97
2018-02-17T05:55:22.952Z,3.97
2018-02-17T05:56:33.008Z,3.94
2018-02-17T05:57:42.802Z,3.92
2018-02-17T05:58:52.864Z,3.86
2018-02-17T06:00:02.380Z,3.89
2018-02-17T06:01:12.474Z,3.92
2018-02-17T06:02:22.260Z,3.9
2018-02-17T06:03:31.784Z,3.92
2018-02-17T06:04:41.844Z,3.93
2018-02-17T06:05:51.898Z,3.85
2018-02-17T06:07:01.947Z,3.86
2018-02-17T06:08:10.993Z,3.79
2018-02-17T06:09:20.803Z,3.84
2018-02-17T06:10:30.860Z,3.76
2018-02-17T06:11:40.671Z,3.75
2018-02-17T06:12:50.717Z,3.75
2018-02-17T06:14:00.769Z,3.71
2018-02-17T06:15:10.567Z,3.74
2018-02-17T06:16:20.642Z,3.66
2018-02-17T06:17:30.444Z,3.58
2018-02-17T06:18:40.524Z,3.66
2018-02-17T06:19:50.194Z,3.61
2018-02-17T06:20:59.994Z,3.66
2018-02-17T06:22:09.782Z,3.63
2018-02-17T06:23:19.575Z,3.67
2018-02-17T06:24:29.620Z,3.71
2018-02-17T06:25:39.719Z,3.72
2018-02-17T06:26:49.289Z,3.67
2018-02-17T06:27:59.086Z,3.64
2018-02-17T06:29:08.881Z,3.71
2018-02-17T06:30:18.678Z,3.64
2018-02-17T06:31:28.224Z,3.64
2018-02-17T06:32:38.260Z,3.63
2018-02-17T06:33:48.052Z,3.71
2018-02-17T06:34:58.099Z,3.61
2018-02-17T06:36:08.171Z,3.69
2018-02-17T06:37:18.412Z,3.63
2018-02-17T06:38:28.203Z,3.69
2018-02-17T06:39:37.981Z,3.64
2018-02-17T06:40:47.521Z,3.66
2018-02-17T06:41:57.594Z,3.74
2018-02-17T06:43:07.646Z,3.66
2018-02-17T06:44:16.925Z,3.67
2018-02-17T06:45:26.445Z,3.72
2018-02-17T06:46:36.236Z,3.75
2018-02-17T06:47:46.283Z,3.75
2018-02-17T06:48:56.115Z,3.76
2018-02-17T06:50:05.917Z,3.78
2018-02-17T06:51:15.976Z,3.67
2018-02-17T06:52:26.029Z,3.76
2018-02-17T06:53:36.077Z,3.79
2018-02-17T06:54:45.864Z,3.86
2018-02-17T06:55:55.115Z,3.84
2018-02-17T06:57:05.274Z,3.85
2018-02-17T06:58:15.077Z,3.85
2018-02-17T06:59:25.167Z,3.93
2018-02-17T07:00:34.946Z,3.9
2018-02-17T07:01:44.986Z,4.02
2018-02-17T07:02:54.776Z,3.97
2018-02-17T07:04:04.574Z,3.97
2018-02-17T07:05:14.377Z,3.93
2018-02-17T07:06:24.173Z,4.02
2018-02-17T07:07:33.705Z,3.94
2018-02-17T07:08:43.504Z,3.97
2018-02-17T07:09:53.289Z,3.94
2018-02-17T07:11:03.080Z,4
2018-02-17T07:12:12.921Z,4.07
2018-02-17T07:13:22.706Z,4.1
2018-02-17T07:14:32.494Z,4.18
2018-02-17T07:15:42.552Z,4.1
2018-02-17T07:16:52.600Z,4.12
2018-02-17T07:18:02.666Z,4.22
2018-02-17T07:19:12.474Z,4.2
2018-02-17T07:20:22.540Z,4.29
2018-02-17T07:21:32.168Z,4.22
2018-02-17T07:22:41.702Z,4.28
2018-02-17T07:23:51.498Z,4.24
2018-02-17T07:25:01.032Z,4.24
2018-02-17T07:26:10.843Z,4.36
2018-02-17T07:27:20.643Z,4.39
2018-02-17T07:28:30.756Z,4.4
2018-02-17T07:29:40.809Z,4.32
2018-02-17T07:30:50.859Z,4.39
2018-02-17T07:31:59.858Z,4.36
2018-02-17T07:33:09.120Z,4.35
2018-02-17T07:34:19.548Z,4.33
2018-02-17T07:35:29.331Z,4.3
2018-02-17T07:36:38.864Z,4.35
2018-02-17T07:37:48.665Z,4.35
2018-02-17T07:38:58.489Z,4.33
2018-02-17T07:40:08.556Z,4.32
2018-02-17T07:41:18.676Z,4.33
2018-02-17T07:42:28.212Z,4.42
2018-02-17T07:43:38.258Z,4.46
2018-02-17T07:44:48.322Z,4.39
2018-02-17T07:45:57.847Z,4.44
2018-02-17T07:47:07.921Z,4.33
2018-02-17T07:48:17.972Z,4.29
2018-02-17T07:49:28.022Z,4.35
2018-02-17T07:50:38.065Z,4.26
2018-02-17T07:51:48.131Z,4.28
2018-02-17T07:52:58.170Z,4.32
2018-02-17T07:54:07.959Z,4.2
2018-02-17T07:55:17.738Z,4.26
2018-02-17T07:56:27.534Z,4.15
2018-02-17T07:57:37.625Z,4.28
2018-02-17T07:58:47.680Z,4.29
2018-02-17T07:59:58.158Z,4.21
2018-02-17T08:01:07.963Z,4.24
2018-02-17T08:02:17.773Z,4.2
2018-02-17T08:03:27.293Z,4.18
2018-02-17T08:04:37.081Z,4.26
2018-02-17T08:05:47.134Z,4.26
2018-02-17T08:06:56.678Z,4.26
2018-02-17T08:08:06.736Z,4.22
2018-02-17T08:09:16.520Z,4.22
2018-02-17T08:10:26.589Z,4.32
2018-02-17T08:11:36.644Z,4.24
2018-02-17T08:12:46.690Z,4.36
2018-02-17T08:13:56.765Z,4.29
2018-02-17T08:15:06.566Z,4.18
2018-02-17T08:16:16.711Z,4.4
2018-02-17T08:17:26.523Z,4.35
2018-02-17T08:18:36.588Z,4.29
2018-02-17T08:19:46.111Z,4.33
2018-02-17T08:20:56.163Z,4.38
2018-02-17T08:22:06.002Z,4.39
2018-02-17T08:23:15.814Z,4.36
2018-02-17T08:24:25.866Z,4.44
2018-02-17T08:25:35.967Z,4.48
2018-02-17T08:26:46.028Z,4.47
2018-02-17T08:27:56.086Z,4.57
2018-02-17T08:29:06.148Z,4.56
2018-02-17T08:30:15.984Z,4.5
2018-02-17T08:31:25.796Z,4.53
2018-02-17T08:32:35.592Z,4.51
2018-02-17T08:33:45.673Z,4.5
2018-02-17T08:34:55.728Z,4.6
2018-02-17T08:36:05.267Z,4.69
2018-02-17T08:37:15.327Z,4.65
2018-02-17T08:38:25.398Z,4.71
2018-02-17T08:39:35.230Z,4.74
2018-02-17T08:40:45.286Z,4.65
2018-02-17T08:41:55.355Z,4.71
2018-02-17T08:43:05.164Z,4.69
2018-02-17T08:44:15.226Z,4.84
2018-02-17T08:45:25.273Z,4.83
2018-02-17T08:46:35.628Z,4.79
2018-02-17T08:47:45.164Z,4.87
2018-02-17T08:48:54.965Z,4.92
2018-02-17T08:50:04.523Z,4.88
2018-02-17T08:51:14.636Z,4.85
2018-02-17T08:52:24.430Z,5.06
2018-02-17T08:53:34.247Z,4.95
2018-02-17T08:54:44.308Z,4.83
2018-02-17T08:55:54.108Z,4.83
2018-02-17T08:57:04.223Z,4.85
2018-02-17T08:58:14.281Z,4.85
2018-02-17T08:59:23.829Z,4.84
2018-02-17T09:00:33.629Z,4.71
2018-02-17T09:01:43.419Z,4.84
2018-02-17T09:02:53.234Z,4.72
2018-02-17T09:04:03.022Z,4.72
2018-02-17T09:05:13.074Z,4.76
2018-02-17T09:06:23.132Z,4.69
2018-02-17T09:07:32.402Z,4.74
2018-02-17T09:08:42.464Z,4.83
2018-02-17T09:09:52.303Z,4.78
2018-02-17T09:11:02.436Z,4.83
2018-02-17T09:12:12.279Z,4.87
2018-02-17T09:13:22.366Z,5.05
2018-02-17T09:14:31.894Z,5.15
2018-02-17T09:15:41.931Z,5.13
2018-02-17T09:16:51.738Z,5.18
2018-02-17T09:18:02.142Z,5.2
2018-02-17T09:19:11.674Z,5.23
2018-02-17T09:20:21.546Z,5.39
2018-02-17T09:21:31.655Z,5.37
2018-02-17T09:22:41.462Z,5.48
2018-02-17T09:23:51.277Z,5.49
2018-02-17T09:25:01.077Z,5.62
2018-02-17T09:26:10.335Z,5.49
2018-02-17T09:27:20.139Z,5.57
2018-02-17T09:28:29.926Z,5.44
2018-02-17T09:29:39.992Z,5.46
2018-02-17T09:30:49.518Z,5.51
2018-02-17T09:31:59.329Z,5.57
2018-02-17T09:33:09.121Z,5.55
2018-02-17T09:34:19.164Z,5.57
2018-02-17T09:35:29.231Z,5.63
2018-02-17T09:36:39.296Z,5.69
2018-02-17T09:37:49.366Z,5.77
2018-02-17T09:38:59.418Z,5.78
2018-02-17T09:40:09.496Z,5.81
2018-02-17T09:41:19.558Z,5.77
2018-02-17T09:42:29.111Z,5.67
2018-02-17T09:43:38.926Z,5.81
2018-02-17T09:44:48.980Z,5.8
2018-02-17T09:45:58.920Z,5.67
2018-02-17T09:47:08.565Z,5.81
2018-02-17T09:48:18.620Z,5.92
2018-02-17T09:49:28.726Z,5.84
2018-02-17T09:50:38.773Z,5.89
2018-02-17T09:51:48.836Z,5.89
2018-02-17T09:52:59.096Z,5.8
2018-02-17T09:54:08.911Z,5.82
2018-02-17T09:55:18.428Z,5.8
2018-02-17T09:56:28.283Z,5.77
2018-02-17T09:57:38.353Z,5.72
2018-02-17T09:58:48.159Z,5.72
2018-02-17T09:59:57.958Z,5.59
2018-02-17T10:01:07.751Z,5.66
2018-02-17T10:02:17.558Z,5.81
2018-02-17T10:03:28.791Z,5.87
2018-02-17T10:04:38.960Z,5.81
2018-02-17T10:05:48.503Z,5.77
2018-02-17T10:06:58.570Z,5.59
2018-02-17T10:08:08.385Z,5.62
2018-02-17T10:09:18.457Z,5.67
2018-02-17T10:10:28.564Z,5.62
2018-02-17T10:11:38.627Z,5.63
2018-02-17T10:12:48.482Z,5.64
2018-02-17T10:13:58.327Z,5.54
2018-02-17T10:15:08.435Z,5.45
2018-02-17T10:16:18.511Z,5.44
2018-02-17T10:17:28.123Z,5.3
2018-02-17T10:18:37.972Z,5.34
2018-02-17T10:19:47.911Z,5.33
2018-02-17T10:20:57.752Z,5.16
2018-02-17T10:22:07.843Z,5.3
2018-02-17T10:23:17.675Z,5.21
2018-02-17T10:24:27.599Z,5.09
2018-02-17T10:25:37.508Z,5.18
2018-02-17T10:26:47.080Z,5.2
2018-02-17T10:27:58.434Z,5.15
2018-02-17T10:29:07.992Z,5.16
2018-02-17T10:30:18.140Z,5.16
2018-02-17T10:31:28.208Z,4.98
2018-02-17T10:32:38.276Z,4.84
2018-02-17T10:33:48.127Z,4.76
2018-02-17T10:34:58.208Z,4.71
2018-02-17T10:36:08.281Z,4.68
2018-02-17T10:37:18.367Z,4.69
2018-02-17T10:38:28.451Z,4.61
2018-02-17T10:39:38.638Z,4.66
2018-02-17T10:40:48.570Z,4.68
2018-02-17T10:41:58.855Z,4.74
2018-02-17T10:43:08.439Z,4.69
2018-02-17T10:44:18.283Z,4.71
2018-02-17T10:45:28.214Z,4.71
2018-02-17T10:46:38.318Z,4.83
2018-02-17T10:47:48.409Z,4.83
2018-02-17T10:48:58.232Z,4.74
2018-02-17T10:50:08.312Z,4.79
2018-02-17T10:51:18.385Z,4.78
2018-02-17T10:52:28.498Z,4.83
2018-02-17T10:53:38.636Z,4.9
2018-02-17T10:54:48.933Z,4.88
2018-02-17T10:55:59.010Z,4.9
2018-02-17T10:57:09.116Z,4.83
2018-02-17T10:58:19.176Z,4.79
2018-02-17T10:59:28.997Z,4.76
2018-02-17T11:00:38.681Z,4.78
2018-02-17T11:01:48.787Z,4.84
2018-02-17T11:02:58.576Z,4.85
2018-02-17T11:04:08.376Z,4.83
2018-02-17T11:05:17.923Z,4.95
2018-02-17T11:06:28.556Z,5
2018-02-17T11:07:38.360Z,5
2018-02-17T11:08:48.167Z,4.9
2018-02-17T11:09:58.258Z,4.84
2018-02-17T11:11:07.815Z,4.91
2018-02-17T11:12:17.729Z,4.85
2018-02-17T11:13:27.826Z,4.87
2018-02-17T11:14:37.636Z,4.84
2018-02-17T11:15:47.175Z,4.9
2018-02-17T11:16:56.978Z,5
2018-02-17T11:18:07.164Z,4.87
2018-02-17T11:19:17.278Z,5
2018-02-17T11:20:27.315Z,4.95
2018-02-17T11:21:36.595Z,5
2018-02-17T11:22:46.167Z,5.02
2018-02-17T11:23:56.038Z,5.03
2018-02-17T11:25:05.835Z,5.08
2018-02-17T11:26:15.662Z,5.03
2018-02-17T11:27:25.548Z,5.09
2018-02-17T11:28:35.617Z,5.03
2018-02-17T11:29:45.450Z,4.98
2018-02-17T11:30:55.290Z,5.02
2018-02-17T11:32:05.117Z,4.97
2018-02-17T11:33:16.273Z,4.83
2018-02-17T11:34:26.347Z,4.83
2018-02-17T11:35:36.522Z,4.85
2018-02-17T11:36:46.806Z,4.87
2018-02-17T11:37:56.681Z,4.92
2018-02-17T11:39:06.796Z,4.85
2018-02-17T11:40:16.899Z,4.76
2018-02-17T11:41:26.980Z,4.79
2018-02-17T11:42:37.112Z,4.72
2018-02-17T11:43:47.179Z,4.79
2018-02-17T11:44:56.984Z,4.74
2018-02-17T11:46:06.557Z,4.76
2018-02-17T11:47:16.231Z,4.76
2018-02-17T11:48:26.347Z,4.76
2018-02-17T11:49:36.475Z,4.71
2018-02-17T11:50:46.299Z,4.71
2018-02-17T11:51:56.220Z,4.68
2018-02-17T11:53:05.798Z,4.69
2018-02-17T11:54:15.922Z,4.61
2018-02-17T11:55:25.763Z,4.58
2018-02-17T11:56:35.878Z,4.57
2018-02-17T11:57:45.717Z,4.54
2018-02-17T11:58:55.278Z,4.53
2018-02-17T12:00:05.099Z,4.51
2018-02-17T12:01:15.193Z,4.51
2018-02-17T12:02:25.028Z,4.44
2018-02-17T12:03:35.139Z,4.5
2018-02-17T12:04:44.959Z,4.47
2018-02-17T12:05:55.066Z,4.47
2018-02-17T12:07:05.186Z,4.54
2018-02-17T12:08:15.290Z,4.48
2018-02-17T12:09:25.411Z,4.5
2018-02-17T12:10:35.944Z,4.51
2018-02-17T12:11:45.821Z,4.5
2018-02-17T12:12:55.655Z,4.44
2018-02-17T12:14:05.755Z,4.5
2018-02-17T12:15:15.580Z,4.56
2018-02-17T12:16:25.135Z,4.56
2018-02-17T12:17:34.947Z,4.47
2018-02-17T12:18:44.779Z,4.58
2018-02-17T12:19:54.596Z,4.51
2018-02-17T12:21:04.447Z,4.58
2018-02-17T12:22:14.297Z,4.68
2018-02-17T12:23:24.376Z,4.65
2018-02-17T12:24:34.478Z,4.66
2018-02-17T12:25:44.575Z,4.69
2018-02-17T12:26:54.467Z,4.72
2018-02-17T12:28:04.037Z,4.68
2018-02-17T12:29:14.139Z,4.84
2018-02-17T12:30:23.964Z,4.79
2018-02-17T12:31:33.888Z,4.85
2018-02-17T12:32:44.135Z,4.79
2018-02-17T12:33:54.225Z,4.85
2018-02-17T12:35:04.131Z,4.88
2018-02-17T12:36:14.467Z,4.92
2018-02-17T12:37:24.960Z,4.79
2018-02-17T12:38:34.788Z,4.79
2018-02-17T12:39:44.758Z,4.97
2018-02-17T12:40:54.529Z,5.05
2018-02-17T12:42:04.383Z,4.97
2018-02-17T12:43:14.339Z,4.95
2018-02-17T12:44:24.384Z,4.97
2018-02-17T12:45:34.739Z,4.97
2018-02-17T12:46:44.642Z,4.92
2018-02-17T12:47:54.743Z,5
2018-02-17T12:49:04.892Z,4.95
2018-02-17T12:50:14.947Z,5
2018-02-17T12:51:24.765Z,5.06
2018-02-17T12:52:34.579Z,4.98
2018-02-17T12:53:44.757Z,5
2018-02-17T12:54:54.313Z,5.05
2018-02-17T12:56:04.404Z,5
2018-02-17T12:57:14.213Z,4.97
2018-02-17T12:58:24.293Z,4.87
2018-02-17T12:59:34.100Z,4.84
2018-02-17T13:00:43.644Z,4.72
2018-02-17T13:01:53.445Z,4.72
2018-02-17T13:03:04.281Z,4.78
2018-02-17T13:04:15.469Z,4.75
2018-02-17T13:05:25.312Z,4.74
2018-02-17T13:06:35.505Z,4.79
2018-02-17T13:07:45.350Z,4.84
2018-02-17T13:08:54.957Z,4.79
2018-02-17T13:10:05.046Z,4.78
2018-02-17T13:11:14.877Z,4.79
2018-02-17T13:12:25.651Z,4.76
2018-02-17T13:13:35.952Z,4.75
2018-02-17T13:14:46.318Z,4.79
2018-02-17T13:15:56.137Z,4.83
2018-02-17T13:17:06.356Z,4.78
2018-02-17T13:18:16.420Z,4.83
2018-02-17T13:19:26.238Z,4.85
2018-02-17T13:20:36.331Z,4.85
2018-02-17T13:21:46.185Z,4.9
2018-02-17T13:22:55.996Z,4.9
2018-02-17T13:24:06.127Z,4.79
2018-02-17T13:25:15.970Z,4.85
2018-02-17T13:26:26.309Z,4.79
2018-02-17T13:27:36.175Z,4.76
2018-02-17T13:28:46.268Z,4.85
2018-02-17T13:29:56.334Z,4.79
2018-02-17T13:31:06.404Z,4.74
2018-02-17T13:32:15.945Z,4.74
2018-02-17T13:33:25.768Z,4.83
2018-02-17T13:34:35.574Z,4.83
2018-02-17T13:35:45.439Z,4.75
2018-02-17T13:36:55.301Z,4.79
2018-02-17T13:38:05.128Z,4.84
2018-02-17T13:39:14.929Z,4.79
2018-02-17T13:40:24.509Z,4.88
2018-02-17T13:41:34.337Z,4.9
2018-02-17T13:42:43.900Z,4.92
2018-02-17T13:43:53.972Z,4.84
2018-02-17T13:45:03.760Z,4.9
2018-02-17T13:46:13.552Z,4.9
2018-02-17T13:47:23.391Z,4.95
2018-02-17T13:48:33.483Z,4.83
2018-02-17T13:49:43.639Z,4.79
2018-02-17T13:50:53.454Z,4.75
2018-02-17T13:52:03.562Z,4.74
2018-02-17T13:53:13.368Z,4.79
2018-02-17T13:54:23.432Z,4.78
2018-02-17T13:55:33.543Z,4.68
2018-02-17T13:56:43.602Z,4.65
2018-02-17T13:57:53.150Z,4.69
2018-02-17T13:59:02.910Z,4.65
2018-02-17T14:00:12.979Z,4.61
2018-02-17T14:01:22.840Z,4.58
2018-02-17T14:02:32.683Z,4.72
2018-02-17T14:03:42.774Z,4.76
2018-02-17T14:04:52.600Z,4.68
2018-02-17T14:06:02.439Z,4.66
2018-02-17T14:07:12.562Z,4.61
2018-02-17T14:08:22.639Z,4.66
2018-02-17T14:09:32.451Z,4.64
2018-02-17T14:10:42.289Z,4.68
2018-02-17T14:11:52.428Z,4.72
2018-02-17T14:13:02.524Z,4.6
2018-02-17T14:14:12.343Z,4.72
2018-02-17T14:15:22.460Z,4.71
2018-02-17T14:16:32.038Z,4.72
2018-02-17T14:17:42.123Z,4.69
2018-02-17T14:18:51.938Z,4.75
2018-02-17T14:20:02.024Z,4.75
2018-02-17T14:21:11.570Z,4.75
2018-02-17T14:22:21.633Z,4.72
2018-02-17T14:23:31.724Z,4.72
2018-02-17T14:24:41.285Z,4.75
2018-02-17T14:25:51.083Z,4.74
2018-02-17T14:27:01.196Z,4.74
2018-02-17T14:28:11.016Z,4.76
2018-02-17T14:29:21.084Z,4.78
2018-02-17T14:30:31.260Z,4.69
2018-02-17T14:31:41.355Z,4.72
2018-02-17T14:32:51.278Z,4.78
2018-02-17T14:34:01.115Z,4.71
2018-02-17T14:35:11.191Z,4.75
2018-02-17T14:36:21.283Z,4.75
2018-02-17T14:37:31.376Z,4.76
2018-02-17T14:38:41.199Z,4.75
2018-02-17T14:39:51.034Z,4.74
2018-02-17T14:41:01.106Z,4.83
2018-02-17T14:42:11.201Z,4.75
2018-02-17T14:43:21.271Z,4.79
2018-02-17T14:44:31.330Z,4.85
2018-02-17T14:48:04.656Z,4.76
2018-02-17T14:49:14.467Z,4.83
2018-02-17T14:50:24.663Z,4.92
2018-02-17T14:51:34.763Z,4.83
2018-02-17T14:52:44.843Z,4.87
2018-02-17T14:53:54.923Z,4.97
2018-02-17T14:55:05.003Z,4.91
2018-02-17T14:56:15.093Z,4.84
2018-02-17T14:57:24.628Z,4.9
2018-02-17T14:58:34.437Z,4.83
2018-02-17T14:59:44.530Z,4.76
2018-02-17T15:00:54.665Z,4.83
2018-02-17T15:02:04.227Z,4.78
2018-02-17T15:03:14.312Z,4.83
2018-02-17T15:04:24.113Z,4.72
2018-02-17T15:05:33.677Z,4.71
2018-02-17T15:06:43.550Z,4.79
2018-02-17T15:07:53.474Z,4.74
2018-02-17T15:09:02.747Z,4.79
2018-02-17T15:10:12.848Z,4.79
2018-02-17T15:11:23.192Z,4.76
2018-02-17T15:12:33.278Z,4.75
2018-02-17T15:13:45.069Z,4.83
2018-02-17T15:14:54.920Z,4.74
2018-02-17T15:16:04.729Z,4.79
2018-02-17T15:17:14.828Z,4.78
2018-02-17T15:18:24.644Z,4.78
2018-02-17T15:19:34.704Z,4.79
2018-02-17T15:20:44.526Z,4.85
2018-02-17T15:21:54.087Z,4.78
2018-02-17T15:23:04.163Z,4.78
2018-02-17T15:24:14.259Z,4.88
2018-02-17T15:25:23.545Z,4.83
2018-02-17T15:26:33.623Z,4.78
2018-02-17T15:27:43.685Z,4.85
2018-02-17T15:28:53.253Z,4.78
2018-02-17T15:30:03.114Z,4.83
2018-02-17T15:31:13.187Z,4.74
2018-02-17T15:32:23.412Z,4.83
2018-02-17T15:33:33.496Z,4.84
2018-02-17T15:34:43.626Z,4.74
2018-02-17T15:35:53.452Z,4.87
2018-02-17T15:37:03.568Z,4.83
2018-02-17T15:38:15.866Z,4.97
2018-02-17T15:39:25.922Z,5
2018-02-17T15:40:35.730Z,5
2018-02-17T15:41:45.803Z,4.9
2018-02-17T15:42:55.885Z,5.02
2018-02-17T15:44:06.001Z,4.98
2018-02-17T15:45:15.812Z,5.05
2018-02-17T15:46:25.868Z,5.03
2018-02-17T15:47:35.930Z,5.02
2018-02-17T15:48:45.988Z,4.98
2018-02-17T15:49:55.553Z,5.09
2018-02-17T15:51:05.632Z,5
2018-02-17T15:52:15.448Z,4.95
2018-02-17T15:53:25.551Z,5
2018-02-17T15:54:35.701Z,5.06
2018-02-17T15:55:45.511Z,5.06
2018-02-17T15:56:55.321Z,5
2018-02-17T15:58:05.403Z,4.98
2018-02-17T15:59:15.253Z,4.98
2018-02-17T16:00:24.798Z,5
2018-02-17T16:01:34.594Z,5.08
2018-02-17T16:02:44.661Z,5.05
2018-02-17T16:03:54.802Z,5.08
2018-02-17T16:05:04.390Z,5.08
2018-02-17T16:06:14.473Z,5.08
2018-02-17T16:07:24.285Z,5.18